createdAt,value
2018-09-11T00:02:27.269Z,101769.60
2018-09-11T00:04:56.592Z,101777.14
2018-09-11T00:07:25.824Z,101776.44
2018-09-11T00:09:55.016Z,101768.55
2018-09-11T00:12:24.135Z,101772.18
2018-09-11T00:14:53.383Z,101769.59
2018-09-11T00:17:22.614Z,101765.64
2018-09-11T00:19:51.919Z,101766.28
2018-09-11T00:22:21.060Z,101762.63
2018-09-11T00:24:50.232Z,101767.89
2018-09-11T00:27:19.428Z,101766.09
2018-09-11T00:29:48.614Z,101764.91
2018-09-11T00:32:17.838Z,101767.09
2018-09-11T00:34:47.085Z,101761.33
2018-09-11T00:37:16.312Z,101766.45
2018-09-11T00:39:45.454Z,101762.47
2018-09-11T00:42:14.639Z,101766.86
2018-09-11T00:44:43.904Z,101759.49
2018-09-11T00:47:13.039Z,101758.91
2018-09-11T00:49:42.223Z,101752.80
2018-09-11T00:52:11.467Z,101747.95
2018-09-11T00:54:40.647Z,101754.80
2018-09-11T00:57:09.785Z,101750.06
2018-09-11T00:59:38.963Z,101742.19
2018-09-11T01:02:14.434Z,101740.08
2018-09-11T01:04:43.579Z,101745.78
2018-09-11T01:07:12.712Z,101748.41
2018-09-11T01:09:41.943Z,101747.89
2018-09-11T01:12:11.195Z,101745.39
2018-09-11T01:14:40.462Z,101740.48
2018-09-11T01:17:09.775Z,101740.52
2018-09-11T01:19:39.027Z,101749.34
2018-09-11T01:22:08.351Z,101751.03
2018-09-11T01:24:37.542Z,101751.55
2018-09-11T01:27:06.670Z,101749.62
2018-09-11T01:29:35.801Z,101740.35
2018-09-11T01:32:04.934Z,101730.88
2018-09-11T01:34:36.899Z,101725.17
2018-09-11T01:37:06.085Z,101727.63
2018-09-11T01:39:35.206Z,101725.52
2018-09-11T01:42:04.422Z,101728.70
2018-09-11T01:44:33.683Z,101725.04
2018-09-11T01:47:02.842Z,101719.75
2018-09-11T01:49:32.063Z,101719.78
2018-09-11T01:52:01.171Z,101721.97
2018-09-11T01:54:30.323Z,101715.05
2018-09-11T01:56:59.512Z,101721.85
2018-09-11T01:59:28.646Z,101727.97
2018-09-11T02:01:57.798Z,101726.31
2018-09-11T02:04:26.969Z,101707.86
2018-09-11T02:06:56.104Z,101707.86
2018-09-11T02:09:25.326Z,101702.57
2018-09-11T02:11:54.579Z,101703.53
2018-09-11T02:14:23.695Z,101709.58
2018-09-11T02:16:52.894Z,101712.90
2018-09-11T02:19:22.103Z,101720.30
2018-09-11T02:21:51.346Z,101713.89
2018-09-11T02:24:20.563Z,101716.94
2018-09-11T02:26:49.698Z,101705.63
2018-09-11T02:29:18.807Z,101714.03
2018-09-11T02:31:47.967Z,101714.64
2018-09-11T02:34:17.125Z,101717.09
2018-09-11T02:36:46.300Z,101727.66
2018-09-11T02:39:15.559Z,101728.33
2018-09-11T02:41:44.720Z,101736.66
2018-09-11T02:44:13.962Z,101745.04
2018-09-11T02:46:43.186Z,101748.69
2018-09-11T02:49:12.322Z,101744.38
2018-09-11T02:51:41.542Z,101749.88
2018-09-11T02:54:10.714Z,101750.41
2018-09-11T02:56:39.959Z,101749.23
2018-09-11T02:59:09.063Z,101749.32
2018-09-11T03:01:38.291Z,101748.94
2018-09-11T03:04:07.439Z,101752.39
2018-09-11T03:06:36.638Z,101753.50
2018-09-11T03:09:06.759Z,101750.85
2018-09-11T03:11:36.130Z,101748.58
2018-09-11T03:14:05.283Z,101746.41
2018-09-11T03:16:34.576Z,101747.47
2018-09-11T03:19:03.711Z,101753.52
2018-09-11T03:21:32.907Z,101749.30
2018-09-11T03:24:02.072Z,101751.92
2018-09-11T03:26:31.822Z,101751.92
2018-09-11T03:29:01.079Z,101750.42
2018-09-11T03:31:30.192Z,101752.69
2018-09-11T03:33:59.419Z,101743.67
2018-09-11T03:36:28.577Z,101747.64
2018-09-11T03:38:57.791Z,101748.53
2018-09-11T03:41:26.976Z,101749.78
2018-09-11T03:43:56.084Z,101748.92
2018-09-11T03:46:25.190Z,101755.77
2018-09-11T03:48:54.387Z,101746.93
2018-09-11T03:51:23.572Z,101748.66
2018-09-11T03:53:52.676Z,101746.84
2018-09-11T03:56:21.908Z,101744.49
2018-09-11T03:58:51.163Z,101750.09
2018-09-11T04:01:20.491Z,101755.80
2018-09-11T04:03:49.739Z,101759.39
2018-09-11T04:06:18.927Z,101759.39
2018-09-11T04:08:48.064Z,101759.86
2018-09-11T04:11:17.225Z,101768.06
2018-09-11T04:13:46.472Z,101770.21
2018-09-11T04:16:15.676Z,101768.66
2018-09-11T04:18:44.904Z,101766.55
2018-09-11T04:21:14.062Z,101772.19
2018-09-11T04:23:43.215Z,101769.05
2018-09-11T04:26:12.388Z,101768.31
2018-09-11T04:28:41.627Z,101768.66
2018-09-11T04:31:10.793Z,101767.70
2018-09-11T04:33:40.015Z,101767.64
2018-09-11T04:36:09.150Z,101764.91
2018-09-11T04:38:38.268Z,101754.95
2018-09-11T04:41:07.478Z,101757.93
2018-09-11T04:43:36.587Z,101757.90
2018-09-11T04:46:05.845Z,101763.47
2018-09-11T04:48:35.046Z,101763.47
2018-09-11T04:51:04.141Z,101762.05
2018-09-11T04:53:33.339Z,101756.42
2018-09-11T04:56:02.466Z,101751.96
2018-09-11T04:58:31.738Z,101756.10
2018-09-11T05:01:01.174Z,101751.78
2018-09-11T05:03:30.427Z,101748.64
2018-09-11T05:05:59.691Z,101750.23
2018-09-11T05:08:28.892Z,101745.39
2018-09-11T05:10:58.145Z,101741.73
2018-09-11T05:13:27.648Z,101743.39
2018-09-11T05:15:56.782Z,101742.81
2018-09-11T05:18:25.949Z,101737.20
2018-09-11T05:20:55.055Z,101726.70
2018-09-11T05:23:24.176Z,101728.33
2018-09-11T05:25:53.342Z,101737.97
2018-09-11T05:28:22.537Z,101744.98
2018-09-11T05:30:51.906Z,101741.50
2018-09-11T05:33:21.082Z,101742.98
2018-09-11T05:35:50.209Z,101742.43
2018-09-11T05:38:19.359Z,101745.95
2018-09-11T05:40:48.525Z,101757.88
2018-09-11T05:43:17.640Z,101754.64
2018-09-11T05:45:46.742Z,101750.86
2018-09-11T05:48:15.996Z,101748.23
2018-09-11T05:50:45.119Z,101749.03
2018-09-11T05:53:14.379Z,101741.22
2018-09-11T05:55:43.599Z,101750.41
2018-09-11T05:58:12.841Z,101746.06
2018-09-11T06:00:42.043Z,101751.66
2018-09-11T06:03:11.287Z,101745.44
2018-09-11T06:05:40.592Z,101754.12
2018-09-11T06:08:09.727Z,101757.40
2018-09-11T06:10:38.902Z,101751.80
2018-09-11T06:13:08.222Z,101756.92
2018-09-11T06:15:37.422Z,101755.41
2018-09-11T06:18:06.863Z,101759.90
2018-09-11T06:20:36.091Z,101761.38
2018-09-11T06:23:05.573Z,101754.08
2018-09-11T06:25:34.842Z,101750.95
2018-09-11T06:28:04.195Z,101754.84
2018-09-11T06:30:33.394Z,101758.17
2018-09-11T06:33:02.607Z,101764.00
2018-09-11T06:35:31.890Z,101763.55
2018-09-11T06:38:01.066Z,101763.28
2018-09-11T06:40:30.295Z,101765.80
2018-09-11T06:42:59.533Z,101761.47
2018-09-11T06:45:28.713Z,101752.78
2018-09-11T06:47:57.967Z,101760.94
2018-09-11T06:50:27.142Z,101753.38
2018-09-11T06:52:56.327Z,101757.83
2018-09-11T06:55:25.491Z,101764.11
2018-09-11T06:57:54.689Z,101760.50
2018-09-11T07:00:23.970Z,101762.52
2018-09-11T07:02:53.166Z,101756.18
2018-09-11T07:05:22.425Z,101764.57
2018-09-11T07:07:51.626Z,101755.06
2018-09-11T07:10:20.763Z,101762.56
2018-09-11T07:12:49.983Z,101760.25
2018-09-11T07:15:20.794Z,101769.90
2018-09-11T07:17:50.019Z,101766.72
2018-09-11T07:20:19.596Z,101770.34
2018-09-11T07:22:48.580Z,101770.26
2018-09-11T07:25:17.861Z,101776.13
2018-09-11T07:27:47.079Z,101775.59
2018-09-11T07:30:18.374Z,101787.81
2018-09-11T07:32:47.534Z,101780.21
2018-09-11T07:35:20.574Z,101779.67
2018-09-11T07:37:49.738Z,101780.27
2018-09-11T07:40:18.942Z,101781.92
2018-09-11T07:42:48.195Z,101790.05
2018-09-11T07:45:19.072Z,101781.50
2018-09-11T07:47:48.340Z,101778.37
2018-09-11T07:50:17.488Z,101777.39
2018-09-11T07:52:46.657Z,101769.70
2018-09-11T07:55:15.932Z,101764.16
2018-09-11T07:57:45.213Z,101761.05
2018-09-11T08:00:14.795Z,101775.52
2018-09-11T08:02:43.959Z,101770.60
2018-09-11T08:05:13.134Z,101770.91
2018-09-11T08:07:42.296Z,101767.31
2018-09-11T08:10:11.495Z,101767.88
2018-09-11T08:12:40.631Z,101766.45
2018-09-11T08:15:10.500Z,101765.47
2018-09-11T08:17:39.698Z,101767.75
2018-09-11T08:20:08.884Z,101771.59
2018-09-11T08:22:38.040Z,101774.77
2018-09-11T08:25:07.201Z,101773.20
2018-09-11T08:27:36.440Z,101773.34
2018-09-11T08:30:06.151Z,101770.17
2018-09-11T08:32:35.338Z,101763.49
2018-09-11T08:35:04.857Z,101754.45
2018-09-11T08:37:35.016Z,101759.72
2018-09-11T08:40:04.190Z,101765.37
2018-09-11T08:42:33.481Z,101753.41
2018-09-11T08:45:02.671Z,101749.41
2018-09-11T08:47:31.796Z,101749.34
2018-09-11T08:50:01.122Z,101746.00
2018-09-11T08:52:30.442Z,101752.45
2018-09-11T08:54:59.658Z,101757.06
2018-09-11T08:57:28.856Z,101753.12
2018-09-11T08:59:58.035Z,101752.53
2018-09-11T09:02:27.159Z,101763.42
2018-09-11T09:04:56.312Z,101752.17
2018-09-11T09:07:25.527Z,101765.75
2018-09-11T09:09:55.760Z,101770.53
2018-09-11T09:12:24.959Z,101761.45
2018-09-11T09:14:54.077Z,101755.66
2018-09-11T09:17:23.198Z,101747.17
2018-09-11T09:19:52.359Z,101760.25
2018-09-11T09:22:21.587Z,101749.41
2018-09-11T09:24:50.889Z,101745.77
2018-09-11T09:27:20.046Z,101736.35
2018-09-11T09:29:49.185Z,101732.83
2018-09-11T09:32:18.343Z,101744.02
2018-09-11T09:34:47.687Z,101736.12
2018-09-11T09:37:16.888Z,101733.58
2018-09-11T09:39:46.024Z,101732.02
2018-09-11T09:42:15.158Z,101726.62
2018-09-11T09:44:44.324Z,101724.03
2018-09-11T09:47:13.478Z,101728.91
2018-09-11T09:49:42.777Z,101735.51
2018-09-11T09:52:11.983Z,101736.92
2018-09-11T09:54:41.292Z,101739.27
2018-09-11T09:57:10.566Z,101737.07
2018-09-11T09:59:39.765Z,101742.08
2018-09-11T10:02:14.205Z,101745.00
2018-09-11T10:04:43.414Z,101750.14
2018-09-11T10:07:12.547Z,101753.35
2018-09-11T10:09:41.686Z,101758.23
2018-09-11T10:12:11.953Z,101764.35
2018-09-11T10:14:41.136Z,101746.45
2018-09-11T10:17:10.964Z,101758.08
2018-09-11T10:19:40.402Z,101741.83
2018-09-11T10:22:09.592Z,101741.95
2018-09-11T10:24:38.746Z,101735.36
2018-09-11T10:27:08.295Z,101742.55
2018-09-11T10:29:37.534Z,101740.38
2018-09-11T10:32:06.748Z,101737.09
2018-09-11T10:34:35.940Z,101730.96
2018-09-11T10:37:05.064Z,101733.52
2018-09-11T10:39:34.300Z,101725.14
2018-09-11T10:42:03.541Z,101729.11
2018-09-11T10:44:32.674Z,101727.91
2018-09-11T10:47:01.842Z,101722.89
2018-09-11T10:49:31.192Z,101717.48
2018-09-11T10:52:00.340Z,101710.91
2018-09-11T10:54:29.469Z,101700.63
2018-09-11T10:56:58.940Z,101708.19
2018-09-11T10:59:28.119Z,101710.41
2018-09-11T11:01:57.251Z,101706.26
2018-09-11T11:04:26.538Z,101702.94
2018-09-11T11:06:55.716Z,101715.36
2018-09-11T11:09:24.865Z,101698.47
2018-09-11T11:11:54.020Z,101701.73
2018-09-11T11:14:23.230Z,101706.67
2018-09-11T11:16:52.488Z,101707.54
2018-09-11T11:19:21.569Z,101699.17
2018-09-11T11:21:50.930Z,101705.55
2018-09-11T11:24:20.080Z,101696.27
2018-09-11T11:26:49.282Z,101693.11
2018-09-11T11:29:18.499Z,101690.72
2018-09-11T11:31:47.654Z,101691.83
2018-09-11T11:34:16.810Z,101693.48
2018-09-11T11:36:46.076Z,101697.97
2018-09-11T11:39:15.175Z,101690.06
2018-09-11T11:41:44.353Z,101690.77
2018-09-11T11:44:13.415Z,101691.20
2018-09-11T11:46:42.631Z,101697.37
2018-09-11T11:49:11.727Z,101687.25
2018-09-11T11:51:41.071Z,101690.78
2018-09-11T11:54:10.246Z,101687.06
2018-09-11T11:56:39.479Z,101692.22
2018-09-11T11:59:08.656Z,101691.84
2018-09-11T12:01:37.918Z,101696.69
2018-09-11T12:04:07.228Z,101699.34
2018-09-11T12:06:36.434Z,101692.05
2018-09-11T12:09:09.027Z,101681.06
2018-09-11T12:11:38.229Z,101678.00
2018-09-11T12:14:07.357Z,101670.05
2018-09-11T12:16:36.522Z,101672.23
2018-09-11T12:19:05.769Z,101668.20
2018-09-11T12:21:34.934Z,101666.60
2018-09-11T12:24:04.080Z,101670.80
2018-09-11T12:26:33.295Z,101668.95
2018-09-11T12:29:02.927Z,101667.76
2018-09-11T12:31:32.090Z,101662.23
2018-09-11T12:34:01.355Z,101655.18
2018-09-11T12:36:30.589Z,101647.72
2018-09-11T12:38:59.755Z,101654.30
2018-09-11T12:41:28.922Z,101648.42
2018-09-11T12:43:58.061Z,101642.11
2018-09-11T12:46:27.626Z,101645.46
2018-09-11T12:48:57.254Z,101644.31
2018-09-11T12:51:26.419Z,101654.94
2018-09-11T12:53:55.596Z,101648.03
2018-09-11T12:56:24.741Z,101639.32
2018-09-11T12:58:54.099Z,101641.50
2018-09-11T13:01:23.239Z,101644.23
2018-09-11T13:03:52.402Z,101641.16
2018-09-11T13:06:21.702Z,101638.53
2018-09-11T13:08:50.832Z,101639.09
2018-09-11T13:11:19.975Z,101629.02
2018-09-11T13:13:49.151Z,101638.21
2018-09-11T13:16:18.285Z,101642.98
2018-09-11T13:18:47.515Z,101633.20
2018-09-11T13:21:16.726Z,101640.62
2018-09-11T13:23:45.854Z,101628.88
2018-09-11T13:26:15.035Z,101626.81
2018-09-11T13:28:44.283Z,101620.31
2018-09-11T13:31:13.522Z,101607.34
2018-09-11T13:33:42.736Z,101617.29
2018-09-11T13:36:11.827Z,101611.97
2018-09-11T13:38:40.957Z,101603.23
2018-09-11T13:41:10.180Z,101606.34
2018-09-11T13:43:40.259Z,101592.95
2018-09-11T13:46:09.471Z,101593.56
2018-09-11T13:48:38.636Z,101597.24
2018-09-11T13:51:07.778Z,101599.78
2018-09-11T13:53:36.890Z,101598.73
2018-09-11T13:56:06.232Z,101586.84
2018-09-11T13:58:35.325Z,101582.39
2018-09-11T14:01:04.589Z,101583.73
2018-09-11T14:03:33.712Z,101586.41
2018-09-11T14:06:02.883Z,101584.91
2018-09-11T14:08:32.170Z,101585.55
2018-09-11T14:11:01.283Z,101569.12
2018-09-11T14:13:30.569Z,101578.31
2018-09-11T14:15:59.739Z,101570.94
2018-09-11T14:18:28.869Z,101572.81
2018-09-11T14:20:58.031Z,101575.20
2018-09-11T14:23:27.247Z,101571.09
2018-09-11T14:25:56.408Z,101580.25
2018-09-11T14:28:25.676Z,101576.88
2018-09-11T14:30:54.787Z,101565.45
2018-09-11T14:33:24.141Z,101567.95
2018-09-11T14:35:53.306Z,101562.92
2018-09-11T14:38:22.471Z,101566.95
2018-09-11T14:40:51.769Z,101560.10
2018-09-11T14:43:20.915Z,101557.64
2018-09-11T14:45:50.273Z,101555.37
2018-09-11T14:48:19.541Z,101557.40
2018-09-11T14:50:48.756Z,101557.95
2018-09-11T14:53:18.003Z,101554.87
2018-09-11T14:55:47.179Z,101555.09
2018-09-11T14:58:16.452Z,101562.53
2018-09-11T15:00:45.660Z,101555.36
2018-09-11T15:03:14.833Z,101554.20
2018-09-11T15:05:43.973Z,101549.12
2018-09-11T15:08:13.172Z,101561.61
2018-09-11T15:10:42.370Z,101556.44
2018-09-11T15:13:11.670Z,101554.70
2018-09-11T15:15:40.868Z,101556.05
2018-09-11T15:18:10.067Z,101553.00
2018-09-11T15:20:39.294Z,101551.89
2018-09-11T15:23:08.463Z,101549.13
2018-09-11T15:25:37.748Z,101538.19
2018-09-11T15:28:06.879Z,101541.87
2018-09-11T15:30:36.208Z,101539.31
2018-09-11T15:33:05.578Z,101541.66
2018-09-11T15:35:34.775Z,101533.95
2018-09-11T15:38:04.035Z,101537.88
2018-09-11T15:40:33.277Z,101533.25
2018-09-11T15:43:02.658Z,101526.57
2018-09-11T15:45:31.873Z,101518.09
2018-09-11T15:48:01.055Z,101525.28
2018-09-11T15:50:30.211Z,101517.77
2018-09-11T15:52:59.469Z,101517.89
2018-09-11T15:55:28.591Z,101501.11
2018-09-11T15:57:57.817Z,101510.09
2018-09-11T16:00:27.093Z,101509.85
2018-09-11T16:02:56.369Z,101506.12
2018-09-11T16:05:25.706Z,101505.65
2018-09-11T16:07:54.859Z,101498.27
2018-09-11T16:10:24.635Z,101501.89
2018-09-11T16:12:53.846Z,101498.98
2018-09-11T16:15:23.519Z,101494.02
2018-09-11T16:17:52.856Z,101494.55
2018-09-11T16:20:22.110Z,101488.22
2018-09-11T16:22:51.400Z,101492.73
2018-09-11T16:25:20.677Z,101485.59
2018-09-11T16:27:49.911Z,101483.30
2018-09-11T16:30:19.800Z,101483.77
2018-09-11T16:32:49.084Z,101478.20
2018-09-11T16:35:18.294Z,101475.74
2018-09-11T16:37:47.719Z,101478.06
2018-09-11T16:40:16.887Z,101480.63
2018-09-11T16:42:46.491Z,101478.69
2018-09-11T16:45:16.470Z,101481.73
2018-09-11T16:47:46.298Z,101475.67
2018-09-11T16:50:15.938Z,101480.80
2018-09-11T16:52:47.025Z,101482.95
2018-09-11T16:55:17.314Z,101482.00
2018-09-11T16:57:46.489Z,101480.69
2018-09-11T17:00:16.104Z,101487.84
2018-09-11T17:02:45.275Z,101492.34
2018-09-11T17:05:14.514Z,101484.81
2018-09-11T17:07:43.663Z,101483.48
2018-09-11T17:10:12.891Z,101485.08
2018-09-11T17:12:42.087Z,101489.06
2018-09-11T17:15:11.940Z,101496.42
2018-09-11T17:17:41.066Z,101497.91
2018-09-11T17:20:10.400Z,101492.20
2018-09-11T17:22:39.511Z,101495.95
2018-09-11T17:25:08.857Z,101490.14
2018-09-11T17:27:37.991Z,101497.53
2018-09-11T17:30:08.029Z,101487.09
2018-09-11T17:32:37.312Z,101499.80
2018-09-11T17:35:06.547Z,101500.90
2018-09-11T17:37:35.734Z,101506.55
2018-09-11T17:40:04.939Z,101511.98
2018-09-11T17:42:34.116Z,101512.59
2018-09-11T17:45:03.444Z,101509.64
2018-09-11T17:47:32.792Z,101504.79
2018-09-11T17:50:01.998Z,101510.97
2018-09-11T17:52:31.335Z,101512.66
2018-09-11T17:55:00.672Z,101517.59
2018-09-11T17:57:29.868Z,101522.32
2018-09-11T17:59:59.755Z,101523.23
2018-09-11T18:02:29.747Z,101525.30
2018-09-11T18:04:58.923Z,101524.91
2018-09-11T18:07:28.240Z,101531.52
2018-09-11T18:09:57.526Z,101536.33
2018-09-11T18:12:26.811Z,101538.11
2018-09-11T18:14:56.078Z,101541.11
2018-09-11T18:17:25.314Z,101540.80
2018-09-11T18:19:54.579Z,101543.16
2018-09-11T18:22:23.815Z,101539.59
2018-09-11T18:24:52.987Z,101546.09
2018-09-11T18:27:22.146Z,101550.42
2018-09-11T18:29:51.514Z,101548.95
2018-09-11T18:32:20.678Z,101547.56
2018-09-11T18:34:49.976Z,101550.88
2018-09-11T18:37:19.374Z,101552.91
2018-09-11T18:39:48.551Z,101560.09
2018-09-11T18:42:17.693Z,101553.62
2018-09-11T18:44:46.854Z,101557.49
2018-09-11T18:47:15.995Z,101557.19
2018-09-11T18:49:45.231Z,101559.28
2018-09-11T18:52:14.360Z,101566.45
2018-09-11T18:54:43.524Z,101556.41
2018-09-11T18:57:12.871Z,101557.06
2018-09-11T18:59:42.119Z,101561.18
2018-09-11T19:02:11.265Z,101568.87
2018-09-11T19:04:40.520Z,101567.83
2018-09-11T19:07:09.700Z,101566.54
2018-09-11T19:09:38.872Z,101573.96
2018-09-11T19:12:08.153Z,101574.00
2018-09-11T19:14:37.508Z,101579.73
2018-09-11T19:17:06.654Z,101579.37
2018-09-11T19:19:35.863Z,101582.06
2018-09-11T19:22:05.092Z,101577.33
2018-09-11T19:24:34.267Z,101581.37
2018-09-11T19:27:03.586Z,101582.44
2018-09-11T19:29:32.878Z,101579.23
2018-09-11T19:32:02.089Z,101568.74
2018-09-11T19:34:32.216Z,101569.51
2018-09-11T19:37:01.476Z,101577.02
2018-09-11T19:39:30.764Z,101570.97
2018-09-11T19:42:00.109Z,101568.80
2018-09-11T19:44:29.354Z,101570.99
2018-09-11T19:46:58.604Z,101574.09
2018-09-11T19:49:27.840Z,101572.98
2018-09-11T19:51:57.073Z,101575.13
2018-09-11T19:54:26.367Z,101575.92
2018-09-11T19:56:55.604Z,101576.56
2018-09-11T19:59:24.860Z,101580.72
2018-09-11T20:01:54.160Z,101581.50
2018-09-11T20:04:23.357Z,101581.22
2018-09-11T20:06:52.643Z,101579.42
2018-09-11T20:09:21.820Z,101578.09
2018-09-11T20:11:51.036Z,101579.42
2018-09-11T20:14:20.311Z,101581.57
2018-09-11T20:16:49.550Z,101577.98
2018-09-11T20:19:18.886Z,101577.23
2018-09-11T20:21:48.161Z,101575.80
2018-09-11T20:24:17.605Z,101581.20
2018-09-11T20:26:46.821Z,101582.13
2018-09-11T20:29:16.042Z,101581.66
2018-09-11T20:31:45.197Z,101586.19
2018-09-11T20:34:14.407Z,101578.80
2018-09-11T20:36:43.595Z,101582.66
2018-09-11T20:39:13.299Z,101586.33
2018-09-11T20:41:42.550Z,101588.09
2018-09-11T20:44:11.924Z,101595.55
2018-09-11T20:46:41.094Z,101589.48
2018-09-11T20:49:10.431Z,101581.91
2018-09-11T20:51:39.664Z,101584.92
2018-09-11T20:54:08.834Z,101588.88
2018-09-11T20:56:38.036Z,101588.52
2018-09-11T20:59:07.244Z,101584.33
2018-09-11T21:01:36.451Z,101587.37
2018-09-11T21:04:05.740Z,101594.08
2018-09-11T21:06:34.878Z,101594.61
2018-09-11T21:09:04.911Z,101593.95
2018-09-11T21:11:34.135Z,101597.73
2018-09-11T21:14:03.266Z,101597.16
2018-09-11T21:16:32.494Z,101587.80
2018-09-11T21:19:01.765Z,101591.27
2018-09-11T21:21:30.891Z,101597.23
2018-09-11T21:24:00.449Z,101598.65
2018-09-11T21:26:29.591Z,101595.97
2018-09-11T21:28:58.812Z,101596.93
2018-09-11T21:31:28.000Z,101602.22
2018-09-11T21:33:57.165Z,101601.83
2018-09-11T21:36:26.280Z,101596.93
2018-09-11T21:38:55.481Z,101603.80
2018-09-11T21:41:24.994Z,101601.06
2018-09-11T21:43:54.178Z,101604.62
2018-09-11T21:46:23.506Z,101607.14
2018-09-11T21:48:52.603Z,101606.47
2018-09-11T21:51:21.796Z,101609.24
2018-09-11T21:53:50.974Z,101604.97
2018-09-11T21:56:20.162Z,101604.67
2018-09-11T21:58:49.301Z,101613.00
2018-09-11T22:01:23.887Z,101610.42
2018-09-11T22:03:53.187Z,101609.36
2018-09-11T22:06:22.270Z,101610.06
2018-09-11T22:08:51.415Z,101611.12
2018-09-11T22:11:20.546Z,101614.55
2018-09-11T22:13:49.744Z,101612.34
2018-09-11T22:16:18.915Z,101610.81
2018-09-11T22:18:48.074Z,101614.08
2018-09-11T22:21:17.167Z,101607.56
2018-09-11T22:23:46.312Z,101614.82
2018-09-11T22:26:15.451Z,101613.07
2018-09-11T22:28:44.576Z,101614.64
2018-09-11T22:31:13.719Z,101616.66
2018-09-11T22:33:42.907Z,101619.55
2018-09-11T22:36:12.058Z,101622.34
2018-09-11T22:38:41.256Z,101625.65
2018-09-11T22:41:10.414Z,101616.41
2018-09-11T22:43:39.620Z,101621.38
2018-09-11T22:46:08.775Z,101612.38
2018-09-11T22:48:38.058Z,101611.60
2018-09-11T22:51:07.379Z,101608.43
2018-09-11T22:53:36.846Z,101619.14
2018-09-11T22:56:05.999Z,101614.11
2018-09-11T22:58:35.190Z,101612.72
2018-09-11T23:01:04.428Z,101614.41
2018-09-11T23:03:33.591Z,101614.33
2018-09-11T23:06:02.857Z,101611.56
2018-09-11T23:08:31.976Z,101608.61
2018-09-11T23:11:01.152Z,101608.70
2018-09-11T23:13:30.453Z,101611.02
2018-09-11T23:15:59.656Z,101603.48
2018-09-11T23:18:28.984Z,101611.56
2018-09-11T23:20:58.096Z,101604.41
2018-09-11T23:23:27.258Z,101605.59
2018-09-11T23:25:56.456Z,101597.72
2018-09-11T23:28:25.758Z,101598.75
2018-09-11T23:30:54.935Z,101597.32
2018-09-11T23:33:24.066Z,101593.98
2018-09-11T23:35:53.251Z,101595.62
2018-09-11T23:38:22.453Z,101587.91
2018-09-11T23:40:51.579Z,101589.30
2018-09-11T23:43:20.727Z,101588.12
2018-09-11T23:45:49.878Z,101584.69
2018-09-11T23:48:19.135Z,101588.00
2018-09-11T23:50:48.345Z,101590.37
2018-09-11T23:53:17.519Z,101590.64
2018-09-11T23:55:46.647Z,101585.20
2018-09-11T23:58:15.746Z,101582.86
